Time;durP1;ratioP1;P1;durP2;ratioP2;P2;SDS_P1;SDS_P2;PMS_P1;PMS_P2;Temp;Humidity;BMP_temperature;BMP_pressure;BME280_temperature;BME280_humidity;BME280_pressure;Samples;Min_cycle;Max_cycle;Signal;HPM_P1;HPM_P2
2023/04/30 00:01:04;;;;;;;7.27;5.43;;;13.30;90.20;;;;;;5133474;27;20947;-67
2023/04/30 00:03:32;;;;;;;9.03;5.63;;;13.30;90.30;;;;;;5133280;27;20955;-67
2023/04/30 00:06:00;;;;;;;8.10;4.80;;;13.30;90.20;;;;;;5133594;27;20433;-67
2023/04/30 00:08:28;;;;;;;7.70;4.53;;;13.30;89.90;;;;;;5132881;27;20437;-67
2023/04/30 00:10:56;;;;;;;7.17;4.80;;;13.30;89.10;;;;;;5133377;27;20434;-67
2023/04/30 00:13:23;;;;;;;7.10;4.60;;;13.30;88.70;;;;;;5133026;27;20490;-67
2023/04/30 00:15:53;;;;;;;7.30;5.03;;;13.30;88.50;;;;;;5133430;27;20465;-67
2023/04/30 00:18:22;;;;;;;8.63;4.70;;;13.30;88.50;;;;;;5132898;27;20434;-67
2023/04/30 00:20:51;;;;;;;6.20;4.77;;;13.30;88.50;;;;;;5128584;27;20442;-67
2023/04/30 00:23:18;;;;;;;6.93;4.47;;;13.30;88.40;;;;;;5127615;27;20454;-67
2023/04/30 00:25:48;;;;;;;5.90;4.63;;;13.30;88.20;;;;;;5133070;27;20489;-68
2023/04/30 00:28:15;;;;;;;7.30;4.50;;;13.30;88.60;;;;;;5132810;27;20433;-67
2023/04/30 00:30:42;;;;;;;6.10;4.17;;;13.20;88.70;;;;;;5133443;28;20434;-67
2023/04/30 00:33:10;;;;;;;5.57;4.60;;;13.20;88.80;;;;;;5133160;28;20469;-67
2023/04/30 00:35:38;;;;;;;7.40;4.90;;;13.20;88.90;;;;;;5133421;28;20797;-67
2023/04/30 00:38:06;;;;;;;6.40;4.50;;;13.20;89.00;;;;;;5133046;28;20935;-67
2023/04/30 00:40:35;;;;;;;5.50;3.90;;;13.20;89.00;;;;;;5133382;28;21251;-67
2023/04/30 00:43:02;;;;;;;5.70;4.00;;;13.20;88.80;;;;;;5132615;28;20438;-67
2023/04/30 00:45:30;;;;;;;9.70;4.63;;;13.20;89.30;;;;;;5133063;28;20440;-67
2023/04/30 00:47:59;;;;;;;6.90;4.87;;;13.20;89.20;;;;;;5133551;28;20465;-67
2023/04/30 00:50:27;;;;;;;6.87;3.80;;;13.20;89.50;;;;;;5122696;27;20983;-67
2023/04/30 00:52:58;;;;;;;6.43;4.37;;;13.10;89.30;;;;;;5137543;27;20525;-67
2023/04/30 00:55:27;;;;;;;6.20;4.23;;;13.10;89.00;;;;;;5136986;27;20489;-67
2023/04/30 00:57:55;;;;;;;9.90;5.20;;;13.10;88.70;;;;;;5136499;27;20516;-67
2023/04/30 01:00:22;;;;;;;7.10;5.10;;;13.20;88.80;;;;;;5137185;27;20437;-67
2023/04/30 01:02:50;;;;;;;7.00;4.40;;;13.10;88.70;;;;;;5137132;27;20486;-67
2023/04/30 01:05:17;;;;;;;5.90;4.10;;;13.10;89.60;;;;;;5136998;27;20911;-67
2023/04/30 01:07:46;;;;;;;5.93;4.73;;;13.10;89.20;;;;;;5136635;27;20528;-67
2023/04/30 01:10:15;;;;;;;6.43;5.17;;;13.10;89.60;;;;;;5136921;27;20475;-67
2023/04/30 01:12:50;;;;;;;5.00;4.50;;;13.10;89.80;;;;;;5136422;27;20484;-67
2023/04/30 01:15:25;;;;;;;7.50;4.83;;;13.00;89.80;;;;;;5136828;27;21000;-67
2023/04/30 01:17:57;;;;;;;5.03;3.93;;;13.10;89.40;;;;;;5136446;27;20432;-67
2023/04/30 01:20:26;;;;;;;7.20;5.43;;;13.00;89.00;;;;;;5136350;27;20900;-67
2023/04/30 01:23:00;;;;;;;7.63;4.50;;;13.00;89.10;;;;;;5136603;27;20433;-67
2023/04/30 01:25:45;;;;;;;7.80;5.47;;;13.00;88.80;;;;;;5136275;27;20854;-67
2023/04/30 01:28:16;;;;;;;5.80;4.87;;;12.90;88.80;;;;;;5136256;27;20433;-67
2023/04/30 01:30:45;;;;;;;7.80;4.83;;;12.90;89.40;;;;;;5136391;27;20436;-67
2023/04/30 01:33:12;;;;;;;7.10;5.30;;;12.80;89.90;;;;;;5136558;27;20557;-67
2023/04/30 01:36:11;;;;;;;7.13;5.43;;;12.80;90.20;;;;;;5136399;27;20852;-67
2023/04/30 01:38:54;;;;;;;5.33;4.03;;;12.70;90.40;;;;;;5136356;27;21040;-67
2023/04/30 01:41:31;;;;;;;6.67;5.20;;;12.70;90.70;;;;;;5135553;27;20460;-67
2023/04/30 01:44:17;;;;;;;5.93;4.90;;;12.60;91.00;;;;;;5136308;27;20444;-67
2023/04/30 01:46:53;;;;;;;6.77;5.00;;;12.60;91.20;;;;;;5135783;27;20433;-67
2023/04/30 01:49:31;;;;;;;6.13;4.60;;;12.60;91.30;;;;;;5136267;27;20511;-67
2023/04/30 01:52:07;;;;;;;4.90;3.57;;;12.60;91.50;;;;;;5135839;27;20556;-67
2023/04/30 01:54:42;;;;;;;6.37;4.73;;;12.50;91.40;;;;;;5136276;27;20432;-67
2023/04/30 01:57:18;;;;;;;7.00;5.20;;;12.50;91.50;;;;;;5136262;27;20468;-67
2023/04/30 01:59:48;;;;;;;6.67;4.93;;;12.50;91.70;;;;;;5136234;27;20458;-67
2023/04/30 02:02:16;;;;;;;5.97;3.97;;;12.50;91.90;;;;;;5136064;27;20437;-67
2023/04/30 02:04:43;;;;;;;6.33;4.37;;;12.50;92.10;;;;;;5134278;27;20490;-67
2023/04/30 02:07:12;;;;;;;5.23;3.70;;;12.50;92.20;;;;;;5137092;27;20438;-67
2023/04/30 02:09:39;;;;;;;6.47;4.80;;;12.50;92.30;;;;;;5135951;27;20459;-67
2023/04/30 02:12:07;;;;;;;6.23;4.50;;;12.40;92.40;;;;;;5135972;27;20484;-67
2023/04/30 02:14:34;;;;;;;6.20;4.57;;;12.40;92.60;;;;;;5135380;27;20479;-67
2023/04/30 02:17:03;;;;;;;8.43;5.13;;;12.40;92.60;;;;;;5136111;27;20465;-67
2023/04/30 02:19:30;;;;;;;9.20;5.07;;;12.40;92.80;;;;;;5136303;27;20445;-67
2023/04/30 02:21:58;;;;;;;10.30;5.50;;;12.40;93.00;;;;;;5135963;27;20775;-67
2023/04/30 02:24:25;;;;;;;6.10;5.10;;;12.40;93.10;;;;;;5135234;27;20429;-67
2023/04/30 02:26:53;;;;;;;7.80;4.67;;;12.40;93.30;;;;;;5135690;27;20780;-67
2023/04/30 02:29:20;;;;;;;6.47;4.77;;;12.40;93.40;;;;;;5135003;27;21000;-67
2023/04/30 02:31:48;;;;;;;6.40;5.23;;;12.50;93.50;;;;;;5134619;27;20437;-67
2023/04/30 02:34:17;;;;;;;7.00;5.40;;;12.50;93.40;;;;;;5135097;27;20437;-67
2023/04/30 02:36:45;;;;;;;7.50;5.70;;;12.50;93.20;;;;;;5135059;27;20444;-67
2023/04/30 02:39:12;;;;;;;6.97;5.47;;;12.50;93.20;;;;;;5135058;27;20490;-68
2023/04/30 02:41:42;;;;;;;6.40;4.70;;;12.50;93.20;;;;;;5134920;27;20442;-67
2023/04/30 02:44:10;;;;;;;7.57;5.80;;;12.50;93.30;;;;;;5134873;27;20429;-67
2023/04/30 02:46:37;;;;;;;6.07;4.73;;;12.50;93.40;;;;;;5134578;27;20441;-67
2023/04/30 02:49:05;;;;;;;8.20;5.47;;;12.50;93.50;;;;;;5135280;27;20430;-67
2023/04/30 02:51:39;;;;;;;7.87;5.20;;;12.50;93.60;;;;;;5134708;27;20439;-67
2023/04/30 02:54:06;;;;;;;7.73;5.03;;;12.50;93.70;;;;;;5134969;27;20487;-67
2023/04/30 02:56:33;;;;;;;6.00;5.00;;;12.40;93.70;;;;;;5134492;27;20907;-67
2023/04/30 02:59:01;;;;;;;8.90;5.57;;;12.40;93.80;;;;;;5134229;27;20478;-67
2023/04/30 03:01:28;;;;;;;8.93;6.50;;;12.40;93.80;;;;;;5134563;27;20545;-67
2023/04/30 03:03:57;;;;;;;7.53;5.60;;;12.40;93.80;;;;;;5134813;27;20919;-67
2023/04/30 03:06:24;;;;;;;10.57;6.90;;;12.40;94.00;;;;;;5134190;27;20841;-67
2023/04/30 03:08:54;;;;;;;7.17;5.53;;;12.40;94.00;;;;;;5134410;27;20434;-67
2023/04/30 03:11:21;;;;;;;8.00;5.70;;;12.40;94.00;;;;;;5134582;27;20825;-67
2023/04/30 03:13:50;;;;;;;9.35;5.32;;;12.40;94.10;;;;;;5134316;27;20480;-67
2023/04/30 03:16:18;;;;;;;12.60;6.20;;;12.40;94.10;;;;;;5133951;27;20260;-67
2023/04/30 03:18:46;;;;;;;11.87;6.60;;;12.30;94.10;;;;;;5134672;27;20279;-67
2023/04/30 03:21:14;;;;;;;9.50;6.20;;;12.30;94.30;;;;;;5134360;27;20456;-68
2023/04/30 03:23:41;;;;;;;8.17;6.17;;;12.30;94.30;;;;;;5134743;27;20456;-67
2023/04/30 03:26:10;;;;;;;8.80;5.23;;;12.30;94.40;;;;;;5133682;27;20866;-67
2023/04/30 03:28:39;;;;;;;7.73;6.57;;;12.30;94.50;;;;;;5134186;27;20437;-68
2023/04/30 03:31:07;;;;;;;7.97;6.00;;;12.30;94.50;;;;;;5133417;27;20429;-67
2023/04/30 03:33:35;;;;;;;7.07;5.23;;;12.30;94.50;;;;;;5133505;27;20477;-67
2023/04/30 03:36:03;;;;;;;9.13;6.83;;;12.20;94.40;;;;;;5115148;27;20932;-68
2023/04/30 03:38:30;;;;;;;9.30;5.60;;;12.20;94.70;;;;;;5113118;28;20481;-67
2023/04/30 03:40:58;;;;;;;8.90;5.70;;;12.20;94.80;;;;;;5113364;28;20184;-67
2023/04/30 03:43:26;;;;;;;7.40;5.77;;;12.10;94.80;;;;;;5132764;27;20429;-67
2023/04/30 03:45:54;;;;;;;11.63;6.05;;;12.10;94.90;;;;;;5133927;27;20769;-67
2023/04/30 03:48:21;;;;;;;7.17;5.33;;;12.10;95.00;;;;;;5133382;27;20199;-67
2023/04/30 03:50:49;;;;;;;8.70;6.03;;;12.10;95.00;;;;;;5133627;27;20495;-67
2023/04/30 03:53:24;;;;;;;7.23;5.63;;;12.10;95.10;;;;;;5133583;27;20501;-67
2023/04/30 03:55:52;;;;;;;7.77;5.47;;;12.00;95.20;;;;;;5133873;27;20444;-67
2023/04/30 03:58:20;;;;;;;8.32;6.07;;;12.10;95.40;;;;;;5133361;27;20469;-67
2023/04/30 04:00:49;;;;;;;8.40;5.93;;;12.10;95.50;;;;;;5133443;27;20195;-67
2023/04/30 04:03:17;;;;;;;8.63;5.60;;;12.10;95.50;;;;;;5133466;27;20434;-67
2023/04/30 04:05:44;;;;;;;8.00;5.20;;;12.10;95.40;;;;;;5133486;27;20223;-67
2023/04/30 04:08:12;;;;;;;7.60;5.10;;;12.10;95.20;;;;;;5133767;27;20425;-67
2023/04/30 04:10:40;;;;;;;7.00;6.10;;;12.10;95.40;;;;;;5133420;27;20433;-67
2023/04/30 04:13:08;;;;;;;7.65;5.15;;;12.00;95.40;;;;;;5133522;27;20483;-67
2023/04/30 04:15:35;;;;;;;7.17;5.70;;;12.00;95.40;;;;;;5133142;27;20307;-67
2023/04/30 04:18:05;;;;;;;6.87;5.47;;;12.00;95.50;;;;;;5133170;27;20433;-67
2023/04/30 04:20:33;;;;;;;10.82;6.10;;;11.90;95.50;;;;;;5133123;27;20437;-67
2023/04/30 04:23:01;;;;;;;8.60;6.85;;;11.90;95.70;;;;;;5133908;27;20187;-67
2023/04/30 04:25:29;;;;;;;9.07;5.43;;;11.80;95.90;;;;;;5133156;27;20542;-67
2023/04/30 04:27:56;;;;;;;6.77;4.87;;;11.80;95.80;;;;;;5133555;27;20190;-67
2023/04/30 04:30:24;;;;;;;10.48;6.20;;;11.80;95.90;;;;;;5133268;27;20525;-67
2023/04/30 04:32:52;;;;;;;7.10;6.40;;;11.80;96.00;;;;;;5132928;28;20298;-67
2023/04/30 04:35:22;;;;;;;8.05;5.75;;;11.80;96.00;;;;;;5133292;28;20658;-67
2023/04/30 04:37:49;;;;;;;7.53;6.00;;;11.80;96.00;;;;;;5132894;28;20650;-67
2023/04/30 04:40:17;;;;;;;8.05;5.95;;;11.70;96.10;;;;;;5133252;28;20490;-67
2023/04/30 04:42:45;;;;;;;8.63;5.53;;;11.70;96.30;;;;;;5133119;28;20228;-67
2023/04/30 04:45:15;;;;;;;7.85;5.82;;;11.70;96.60;;;;;;5133396;28;20187;-67
2023/04/30 04:47:43;;;;;;;6.30;4.77;;;11.80;96.20;;;;;;5133097;28;20591;-67
2023/04/30 04:50:11;;;;;;;8.40;5.65;;;11.80;96.00;;;;;;5132880;28;20858;-67
2023/04/30 04:52:40;;;;;;;6.60;5.60;;;11.80;96.10;;;;;;5133154;28;20282;-67
2023/04/30 04:55:09;;;;;;;10.53;5.90;;;11.90;96.20;;;;;;5132868;28;20520;-67
2023/04/30 04:57:37;;;;;;;10.00;6.15;;;11.90;96.20;;;;;;5133271;28;20991;-67
2023/04/30 05:00:07;;;;;;;8.00;5.07;;;12.00;96.30;;;;;;5132839;28;20196;-67
2023/04/30 05:02:34;;;;;;;9.40;6.17;;;12.10;96.30;;;;;;5133109;28;20521;-67
2023/04/30 05:05:02;;;;;;;12.30;6.60;;;12.20;96.30;;;;;;5133436;28;20462;-67
2023/04/30 05:07:29;;;;;;;7.90;5.67;;;12.30;96.40;;;;;;5133140;28;20441;-67
2023/04/30 05:09:58;;;;;;;7.07;5.27;;;12.50;96.40;;;;;;5134436;28;20437;-67
2023/04/30 05:12:25;;;;;;;7.93;5.60;;;12.60;96.20;;;;;;5133254;28;20437;-67
2023/04/30 05:14:53;;;;;;;9.73;6.63;;;12.70;95.60;;;;;;5133029;28;20481;-67
2023/04/30 05:17:20;;;;;;;8.87;5.30;;;12.80;95.40;;;;;;5132341;28;20822;-67
2023/04/30 05:19:49;;;;;;;9.80;6.17;;;12.90;94.40;;;;;;5132718;28;20923;-67
2023/04/30 05:22:16;;;;;;;7.67;5.00;;;13.00;94.20;;;;;;5132483;28;20469;-68
2023/04/30 05:24:44;;;;;;;6.97;5.83;;;13.10;93.80;;;;;;5132746;28;20533;-67
2023/04/30 05:27:13;;;;;;;11.20;4.93;;;13.20;93.40;;;;;;5132549;28;20893;-68
2023/04/30 05:29:40;;;;;;;7.10;5.90;;;13.40;93.00;;;;;;5133135;28;20449;-67
2023/04/30 05:32:07;;;;;;;8.77;5.63;;;13.50;92.80;;;;;;5132337;28;20433;-67
2023/04/30 05:34:34;;;;;;;10.03;5.63;;;13.60;92.50;;;;;;5132215;28;21020;-67
2023/04/30 05:37:02;;;;;;;10.80;6.77;;;13.70;91.30;;;;;;5132282;27;20994;-67
2023/04/30 05:39:30;;;;;;;8.93;6.80;;;13.80;90.70;;;;;;5135595;27;20444;-67
2023/04/30 05:42:00;;;;;;;10.17;6.60;;;13.80;90.40;;;;;;5135927;27;20433;-67
2023/04/30 05:44:31;;;;;;;7.70;6.20;;;13.80;88.80;;;;;;5136061;27;20430;-67
2023/04/30 05:46:58;;;;;;;9.20;6.20;;;13.80;89.20;;;;;;5135814;27;20437;-67
2023/04/30 05:49:26;;;;;;;8.40;6.50;;;13.90;89.60;;;;;;5135828;27;20497;-67
2023/04/30 05:51:53;;;;;;;9.27;7.50;;;14.00;89.10;;;;;;5135920;27;20443;-67
2023/04/30 05:54:21;;;;;;;7.57;6.20;;;14.20;86.00;;;;;;5136183;27;20509;-67
2023/04/30 05:56:48;;;;;;;7.73;6.60;;;14.30;86.60;;;;;;5135698;27;20429;-67
2023/04/30 05:59:15;;;;;;;8.40;6.47;;;14.30;86.90;;;;;;5135895;27;20429;-67
2023/04/30 06:01:44;;;;;;;9.17;6.87;;;14.50;86.00;;;;;;5135523;27;20502;-67
2023/04/30 06:04:12;;;;;;;7.90;6.00;;;14.60;85.00;;;;;;5135701;27;20948;-67
2023/04/30 06:06:39;;;;;;;8.30;6.00;;;14.70;84.20;;;;;;5135574;27;20463;-67
2023/04/30 06:09:06;;;;;;;8.47;6.57;;;14.90;85.10;;;;;;5136105;27;20445;-67
2023/04/30 06:11:34;;;;;;;7.40;5.50;;;15.10;84.90;;;;;;5128546;27;20446;-67
2023/04/30 06:14:02;;;;;;;7.77;5.63;;;15.20;83.80;;;;;;5114805;27;20482;-67
2023/04/30 06:16:29;;;;;;;7.93;6.00;;;15.40;82.30;;;;;;5116655;27;20995;-67
2023/04/30 06:18:58;;;;;;;7.40;5.83;;;15.60;81.20;;;;;;5114805;27;20445;-67
2023/04/30 06:21:25;;;;;;;7.40;6.30;;;15.70;79.10;;;;;;5116360;27;20442;-67
2023/04/30 06:23:53;;;;;;;8.73;6.13;;;15.90;77.30;;;;;;5115174;27;20435;-67
2023/04/30 06:26:20;;;;;;;7.73;6.50;;;16.10;76.90;;;;;;5118651;27;20486;-67
2023/04/30 06:28:47;;;;;;;7.73;5.23;;;16.20;74.80;;;;;;5132464;27;20915;-67
2023/04/30 06:31:15;;;;;;;7.00;5.37;;;16.20;74.30;;;;;;5128533;27;20446;-67
2023/04/30 06:33:42;;;;;;;9.40;5.27;;;16.20;73.80;;;;;;5116522;27;20469;-68
2023/04/30 06:36:13;;;;;;;6.00;4.90;;;16.30;75.60;;;;;;5114051;27;20453;-67
2023/04/30 06:38:41;;;;;;;8.07;5.73;;;16.40;75.30;;;;;;5114728;27;20434;-67
2023/04/30 06:41:08;;;;;;;9.73;5.97;;;16.40;73.80;;;;;;5114254;27;20529;-68
2023/04/30 06:43:36;;;;;;;6.93;4.93;;;16.40;73.60;;;;;;5115369;27;20445;-68
2023/04/30 06:46:03;;;;;;;7.40;5.43;;;16.30;73.40;;;;;;5114128;27;20477;-67
2023/04/30 06:48:30;;;;;;;6.57;4.80;;;16.40;73.60;;;;;;5123220;27;20446;-67
2023/04/30 06:50:58;;;;;;;7.40;5.90;;;16.60;72.50;;;;;;5131784;27;20433;-67
2023/04/30 06:53:27;;;;;;;7.13;5.33;;;16.80;71.80;;;;;;5124390;27;20465;-67
2023/04/30 06:55:54;;;;;;;8.00;4.83;;;17.10;71.90;;;;;;5132201;27;20786;-67
2023/04/30 06:58:22;;;;;;;9.63;5.90;;;17.30;70.30;;;;;;5131743;27;20522;-67
2023/04/30 07:00:49;;;;;;;6.87;5.73;;;17.50;70.10;;;;;;5131370;27;20433;-67
2023/04/30 07:03:16;;;;;;;7.47;5.73;;;17.70;68.80;;;;;;5125820;27;20495;-67
2023/04/30 07:05:43;;;;;;;7.23;5.13;;;17.60;67.40;;;;;;5113803;27;21581;-67
2023/04/30 07:08:11;;;;;;;7.00;5.20;;;17.70;67.60;;;;;;5114454;27;20430;-67
2023/04/30 07:10:40;;;;;;;7.07;5.70;;;17.60;65.90;;;;;;5113263;27;20517;-68
2023/04/30 07:13:08;;;;;;;10.10;5.40;;;17.60;65.20;;;;;;5115472;27;20433;-68
2023/04/30 07:15:38;;;;;;;8.53;6.73;;;17.60;66.10;;;;;;5113467;27;20462;-67
2023/04/30 07:18:05;;;;;;;7.50;5.33;;;17.80;66.50;;;;;;5116441;27;20472;-68
2023/04/30 07:20:33;;;;;;;7.27;5.90;;;18.00;65.90;;;;;;5113440;27;20436;-68
2023/04/30 07:23:00;;;;;;;7.17;5.60;;;18.00;65.00;;;;;;5114841;27;20434;-67
2023/04/30 07:25:27;;;;;;;6.87;5.57;;;18.00;64.80;;;;;;5114950;27;20491;-67
2023/04/30 07:27:57;;;;;;;7.47;5.93;;;18.10;64.70;;;;;;5112644;27;20431;-68
2023/04/30 07:30:24;;;;;;;6.13;4.70;;;18.10;64.20;;;;;;5112826;27;20941;-67
2023/04/30 07:32:52;;;;;;;9.23;5.97;;;18.10;64.20;;;;;;5113048;27;20526;-67
2023/04/30 07:35:19;;;;;;;8.57;5.80;;;18.10;62.20;;;;;;5130693;27;20525;-67
2023/04/30 07:37:47;;;;;;;6.40;4.67;;;18.10;62.20;;;;;;5112905;27;20444;-68
2023/04/30 07:40:14;;;;;;;6.90;4.73;;;18.30;63.50;;;;;;5114478;27;20457;-68
2023/04/30 07:42:42;;;;;;;7.23;5.43;;;18.50;62.20;;;;;;5113185;27;20434;-67
2023/04/30 07:45:12;;;;;;;9.20;5.30;;;18.50;62.10;;;;;;5115004;27;20430;-68
2023/04/30 07:47:39;;;;;;;6.70;5.20;;;18.60;62.10;;;;;;5112924;27;20819;-67
2023/04/30 07:50:07;;;;;;;6.53;5.13;;;18.90;60.50;;;;;;5116150;27;20518;-67
2023/04/30 07:52:36;;;;;;;7.40;5.53;;;18.90;61.10;;;;;;5112234;27;20434;-67
2023/04/30 07:55:04;;;;;;;5.57;4.47;;;19.10;59.70;;;;;;5116048;27;20591;-67
2023/04/30 07:57:32;;;;;;;5.60;4.50;;;19.20;59.90;;;;;;5114498;27;20514;-68
2023/04/30 07:59:59;;;;;;;8.13;5.10;;;19.40;58.90;;;;;;5122488;27;20438;-67
2023/04/30 08:02:34;;;;;;;5.60;5.00;;;19.40;58.20;;;;;;5114446;27;20433;-68
2023/04/30 08:05:02;;;;;;;7.13;5.80;;;19.50;58.90;;;;;;5112574;27;20436;-67
2023/04/30 08:07:29;;;;;;;9.13;5.43;;;19.50;59.80;;;;;;5110564;27;20430;-67
2023/04/30 08:09:56;;;;;;;5.50;4.67;;;19.50;58.50;;;;;;5111957;27;20541;-67
2023/04/30 08:12:23;;;;;;;5.20;4.60;;;19.60;58.50;;;;;;5114924;27;20525;-67
2023/04/30 08:14:50;;;;;;;5.07;3.70;;;19.90;58.30;;;;;;5112262;27;20473;-68
2023/04/30 08:17:18;;;;;;;5.30;4.20;;;20.10;57.20;;;;;;5115335;27;20438;-68
2023/04/30 08:19:46;;;;;;;5.63;4.20;;;20.40;57.70;;;;;;5116104;27;20496;-68
2023/04/30 08:22:18;;;;;;;7.77;5.00;;;20.60;54.90;;;;;;5112114;27;20441;-68
2023/04/30 08:24:50;;;;;;;5.90;3.80;;;20.70;54.00;;;;;;5115595;27;20438;-68
2023/04/30 08:27:22;;;;;;;5.77;4.43;;;20.80;52.00;;;;;;5116144;27;20442;-68
2023/04/30 08:29:51;;;;;;;5.90;4.33;;;20.80;53.00;;;;;;5130125;27;20783;-67
2023/04/30 08:32:19;;;;;;;6.00;4.87;;;20.80;52.60;;;;;;5130129;28;20490;-68
2023/04/30 08:34:48;;;;;;;5.27;3.97;;;20.70;51.30;;;;;;5129760;28;20481;-68
2023/04/30 08:37:15;;;;;;;6.80;4.20;;;20.80;51.00;;;;;;5114363;28;20525;-68
2023/04/30 08:39:43;;;;;;;5.57;4.27;;;20.80;51.00;;;;;;5111088;28;20513;-68
2023/04/30 08:42:13;;;;;;;5.70;4.60;;;20.80;52.70;;;;;;5116111;28;20444;-67
2023/04/30 08:44:42;;;;;;;5.57;4.33;;;21.00;53.50;;;;;;5112427;28;20445;-68
2023/04/30 08:47:13;;;;;;;6.30;4.40;;;21.20;53.00;;;;;;5112358;28;20426;-68
2023/04/30 08:49:43;;;;;;;4.90;3.70;;;21.20;52.40;;;;;;5111553;28;20462;-69
2023/04/30 08:52:13;;;;;;;5.13;3.80;;;21.10;51.30;;;;;;5117914;28;20436;-68
2023/04/30 08:54:41;;;;;;;4.53;4.07;;;20.90;51.80;;;;;;5113853;28;20609;-68
2023/04/30 08:57:08;;;;;;;4.90;3.47;;;20.70;52.20;;;;;;5117935;28;20435;-68
2023/04/30 08:59:35;;;;;;;4.27;3.60;;;20.50;52.50;;;;;;5119145;28;20438;-69
2023/04/30 09:02:02;;;;;;;4.97;3.70;;;20.30;53.10;;;;;;5117711;28;20516;-68
2023/04/30 09:04:30;;;;;;;4.63;3.80;;;20.20;52.90;;;;;;5125773;28;20902;-68
2023/04/30 09:06:58;;;;;;;5.80;4.20;;;20.00;52.90;;;;;;5120794;28;20482;-68
2023/04/30 09:09:39;;;;;;;6.43;3.00;;;19.90;52.50;;;;;;5113998;28;20877;-68
2023/04/30 09:12:14;;;;;;;5.83;4.30;;;19.90;53.10;;;;;;5120216;27;20479;-68
2023/04/30 09:14:41;;;;;;;6.17;4.23;;;19.80;53.20;;;;;;5124425;27;20472;-69
2023/04/30 09:17:09;;;;;;;5.20;3.60;;;19.60;54.00;;;;;;5124809;27;20473;-68
2023/04/30 09:19:37;;;;;;;4.17;2.83;;;19.70;53.30;;;;;;5124890;27;20492;-68
2023/04/30 09:22:21;;;;;;;5.10;3.90;;;19.80;53.40;;;;;;5122186;27;20445;-69
2023/04/30 09:24:50;;;;;;;4.60;3.40;;;19.90;52.60;;;;;;5121653;27;20523;-68
2023/04/30 09:27:18;;;;;;;4.70;3.03;;;19.80;52.10;;;;;;5129445;27;20441;-69
2023/04/30 09:29:46;;;;;;;4.00;2.63;;;19.70;51.40;;;;;;5123336;27;20433;-68
2023/04/30 09:32:13;;;;;;;4.90;3.37;;;19.50;52.10;;;;;;5124214;27;20491;-68
2023/04/30 09:34:42;;;;;;;4.00;2.67;;;19.40;52.40;;;;;;5129564;27;21055;-68
2023/04/30 09:37:10;;;;;;;7.43;4.20;;;19.20;53.80;;;;;;5122256;27;20440;-68
2023/04/30 09:40:00;;;;;;;6.00;4.37;;;19.10;53.70;;;;;;5124403;27;20538;-68
2023/04/30 09:42:27;;;;;;;5.37;3.47;;;19.20;54.60;;;;;;5118258;27;20449;-68
2023/04/30 09:45:18;;;;;;;3.87;2.93;;;19.30;53.00;;;;;;5118285;27;20450;-68
2023/04/30 09:47:53;;;;;;;4.20;2.50;;;19.40;53.30;;;;;;5127483;27;20445;-69
2023/04/30 09:50:20;;;;;;;3.73;2.00;;;19.50;54.30;;;;;;5126893;27;20795;-68
2023/04/30 09:52:53;;;;;;;6.27;2.93;;;19.40;53.00;;;;;;5122605;27;20445;-68
2023/04/30 09:55:22;;;;;;;7.43;3.37;;;19.30;52.70;;;;;;5126411;27;20482;-68
2023/04/30 09:57:52;;;;;;;5.07;3.57;;;19.10;52.60;;;;;;5124637;27;20498;-68
2023/04/30 10:00:20;;;;;;;4.00;2.63;;;19.00;53.10;;;;;;5120785;27;20799;-68
2023/04/30 10:02:49;;;;;;;4.40;2.90;;;19.10;53.40;;;;;;5127678;27;20449;-68
2023/04/30 10:05:17;;;;;;;4.33;2.73;;;19.30;53.90;;;;;;5125701;27;20434;-68
2023/04/30 10:07:47;;;;;;;3.77;2.43;;;19.70;52.70;;;;;;5119493;27;20448;-68
2023/04/30 10:10:15;;;;;;;3.70;2.70;;;20.40;53.20;;;;;;5120619;27;20507;-68
2023/04/30 10:12:51;;;;;;;4.00;2.70;;;21.10;52.70;;;;;;5124803;27;20452;-68
2023/04/30 10:15:25;;;;;;;3.50;2.53;;;21.50;51.20;;;;;;5121747;27;20545;-68
2023/04/30 10:17:57;;;;;;;3.03;2.30;;;21.80;48.50;;;;;;5119813;27;20503;-69
2023/04/30 10:20:27;;;;;;;3.20;1.87;;;21.90;47.70;;;;;;5123182;27;20499;-69
2023/04/30 10:22:55;;;;;;;3.40;2.13;;;22.00;47.60;;;;;;5119194;27;20438;-68
2023/04/30 10:25:25;;;;;;;3.73;2.97;;;22.20;48.60;;;;;;5119258;27;20445;-67
2023/04/30 10:27:54;;;;;;;3.80;2.43;;;22.30;47.40;;;;;;5122467;27;20531;-67
2023/04/30 10:30:23;;;;;;;4.10;2.40;;;22.40;45.90;;;;;;5118115;27;20456;-67
2023/04/30 10:33:00;;;;;;;3.43;2.07;;;22.30;46.00;;;;;;5122414;27;20802;-67
2023/04/30 10:35:33;;;;;;;3.60;2.40;;;22.30;47.40;;;;;;5123570;27;20480;-68
2023/04/30 10:38:07;;;;;;;3.33;2.10;;;22.30;45.70;;;;;;5118558;27;20426;-67
2023/04/30 10:40:37;;;;;;;4.40;2.20;;;22.10;47.10;;;;;;5123852;27;20434;-67
2023/04/30 10:43:06;;;;;;;4.50;2.40;;;21.90;47.60;;;;;;5120323;27;20539;-67
2023/04/30 10:45:37;;;;;;;3.50;2.40;;;21.90;46.00;;;;;;5121853;27;20443;-67
2023/04/30 10:48:04;;;;;;;3.70;2.30;;;21.80;47.40;;;;;;5123842;27;20870;-67
2023/04/30 10:50:32;;;;;;;2.80;1.83;;;21.80;45.30;;;;;;5119481;27;20748;-67
2023/04/30 10:53:03;;;;;;;4.17;2.27;;;21.60;45.10;;;;;;5121125;27;20491;-67
2023/04/30 10:55:31;;;;;;;4.13;2.07;;;21.40;44.20;;;;;;5123961;27;20485;-67
2023/04/30 10:58:01;;;;;;;3.23;2.43;;;21.20;45.00;;;;;;5119631;27;20430;-67
2023/04/30 11:00:30;;;;;;;3.80;2.20;;;21.10;45.10;;;;;;5123255;27;20449;-68
2023/04/30 11:03:03;;;;;;;3.90;2.27;;;21.10;44.20;;;;;;5123812;27;20487;-68
2023/04/30 11:05:37;;;;;;;3.30;2.20;;;21.20;45.40;;;;;;5120229;27;20996;-68
2023/04/30 11:08:05;;;;;;;3.83;2.20;;;21.50;45.80;;;;;;5120199;27;20445;-68
2023/04/30 11:10:34;;;;;;;3.97;2.50;;;21.80;45.40;;;;;;5124579;27;20445;-68
2023/04/30 11:13:06;;;;;;;3.20;2.40;;;22.00;44.90;;;;;;5119173;27;20442;-68
2023/04/30 11:15:41;;;;;;;2.87;2.00;;;22.10;44.10;;;;;;5123841;27;20488;-68
2023/04/30 11:18:09;;;;;;;4.00;2.67;;;22.20;45.10;;;;;;5120453;27;20445;-68
2023/04/30 11:20:40;;;;;;;3.73;2.50;;;22.40;43.80;;;;;;5121302;27;20490;-68
2023/04/30 11:23:13;;;;;;;3.30;2.27;;;22.20;42.80;;;;;;5121701;27;20434;-68
2023/04/30 11:25:44;;;;;;;3.83;2.67;;;22.20;43.50;;;;;;5116709;27;20441;-68
2023/04/30 11:28:16;;;;;;;3.90;2.43;;;22.10;43.20;;;;;;5113199;27;20441;-68
2023/04/30 11:30:53;;;;;;;4.23;3.20;;;22.00;44.20;;;;;;5113427;27;20817;-68
2023/04/30 11:33:26;;;;;;;2.70;1.93;;;21.90;44.10;;;;;;5115244;27;20936;-68
2023/04/30 11:35:55;;;;;;;5.20;2.37;;;21.90;44.60;;;;;;5112024;27;20489;-68
2023/04/30 11:38:26;;;;;;;5.07;2.40;;;22.10;44.90;;;;;;5121564;27;20529;-68
2023/04/30 11:40:54;;;;;;;3.50;2.53;;;22.30;43.30;;;;;;5127621;27;20434;-68
2023/04/30 11:43:22;;;;;;;3.63;2.80;;;22.40;44.30;;;;;;5131250;27;20433;-68
2023/04/30 11:46:03;;;;;;;3.40;2.30;;;22.40;43.90;;;;;;5130267;27;20521;-68
2023/04/30 11:48:34;;;;;;;3.23;2.30;;;22.40;44.30;;;;;;5119168;27;20437;-68
2023/04/30 11:51:06;;;;;;;4.03;2.10;;;22.50;43.40;;;;;;5114135;27;20928;-68
2023/04/30 11:53:33;;;;;;;3.20;2.40;;;22.50;42.70;;;;;;5123182;27;20536;-68
2023/04/30 11:56:05;;;;;;;3.57;2.60;;;22.50;42.30;;;;;;5129916;27;20482;-68
2023/04/30 11:58:36;;;;;;;3.27;2.17;;;22.60;42.20;;;;;;5122084;27;20940;-68
2023/04/30 12:01:06;;;;;;;3.40;2.40;;;22.60;43.20;;;;;;5133859;27;20493;-68
2023/04/30 12:03:40;;;;;;;3.10;2.60;;;22.80;42.30;;;;;;5134259;27;20429;-68
2023/04/30 12:06:09;;;;;;;4.60;2.60;;;22.70;42.00;;;;;;5134768;27;20528;-68
2023/04/30 12:08:36;;;;;;;4.60;2.33;;;22.60;42.20;;;;;;5134317;27;20516;-68
2023/04/30 12:11:06;;;;;;;4.37;2.43;;;22.40;42.80;;;;;;5134509;27;20462;-68
2023/04/30 12:13:33;;;;;;;3.23;2.13;;;22.20;45.30;;;;;;5134465;27;20433;-68
2023/04/30 12:16:02;;;;;;;3.00;2.20;;;21.90;43.80;;;;;;5134068;27;20904;-68
2023/04/30 12:18:33;;;;;;;3.93;2.30;;;21.70;44.00;;;;;;5134092;27;20433;-68
2023/04/30 12:21:00;;;;;;;2.80;2.03;;;21.50;44.00;;;;;;5134190;27;20516;-68
2023/04/30 12:23:27;;;;;;;3.90;2.10;;;21.30;44.50;;;;;;5134160;27;20925;-68
2023/04/30 12:25:59;;;;;;;3.00;1.97;;;21.20;44.70;;;;;;5134271;27;20808;-67
2023/04/30 12:28:26;;;;;;;3.30;2.10;;;21.10;46.00;;;;;;5134125;27;20468;-68
2023/04/30 12:30:55;;;;;;;2.87;1.87;;;21.20;46.50;;;;;;5134134;27;20479;-68
2023/04/30 12:33:22;;;;;;;3.60;2.20;;;21.40;45.90;;;;;;5134128;27;20433;-68
2023/04/30 12:35:53;;;;;;;3.30;2.20;;;21.30;44.50;;;;;;5134143;28;20480;-68
2023/04/30 12:38:22;;;;;;;2.90;2.07;;;21.30;44.20;;;;;;5133997;28;21002;-68
2023/04/30 12:40:49;;;;;;;5.20;2.50;;;21.20;45.20;;;;;;5133717;28;20928;-68
2023/04/30 12:43:17;;;;;;;5.20;2.30;;;21.20;44.60;;;;;;5133422;28;20422;-68
2023/04/30 12:45:46;;;;;;;3.63;2.50;;;21.10;44.90;;;;;;5134002;28;20433;-68
2023/04/30 12:48:16;;;;;;;3.00;1.83;;;21.00;45.50;;;;;;5137118;27;20421;-68
2023/04/30 12:50:47;;;;;;;2.87;1.83;;;21.00;45.10;;;;;;5138258;27;20432;-68
2023/04/30 12:53:15;;;;;;;2.50;1.77;;;21.10;45.50;;;;;;5138313;27;20475;-68
2023/04/30 12:55:42;;;;;;;3.97;2.47;;;21.10;45.80;;;;;;5138008;27;20563;-68